Virtual LH

Virtual LH. There's no better way to fly
Since 2013.



 METAR AND TAF INFORMATION
METAR FOR LOWW
ADDS - METARS form results

(1259 UTC 23 May 2018)
Data provider http://aviationweather.gov/adds/metars/
 
METAR text: LOWW 231250Z 10008KT 070V130 9999 SCT045 FEW045CB 25/15 Q1017 TEMPO FM1315 TL1400 -TSRA
Conditions at: LOWW (VIENNA/SCHWECHAT, AT) observed 1250 UTC 23 May 2018
Temperature: 25.0°C (77°F)
Dewpoint: 15.0°C (59°F) [RH = 54%]
Pressure (altimeter): 30.03 inches Hg (1017.0 mb)
Winds: from the E (100 degrees) at 9 MPH (8 knots; 4.2 m/s)
Visibility: 6 or more miles (10+ km)
Ceiling: at least 12,000 feet AGL
Clouds: scattered clouds at 4500 feet AGL
few clouds at 4500 feet AGL
Weather: no significant weather observed at this time

METAR text: LOWW 231220Z 14009KT 100V200 9999 FEW045 FEW045CB SCT300 27/15 Q1017 TEMPO FM1315 TSRA
Conditions at: LOWW (VIENNA/SCHWECHAT, AT) observed 1220 UTC 23 May 2018
Temperature: 27.0°C (81°F)
Dewpoint: 15.0°C (59°F) [RH = 48%]
Pressure (altimeter): 30.03 inches Hg (1017.0 mb)
Winds: from the SE (140 degrees) at 10 MPH (9 knots; 4.7 m/s)
Visibility: 6 or more miles (10+ km)
Ceiling: at least 12,000 feet AGL
Clouds: few clouds at 4500 feet AGL
few clouds at 4500 feet AGL
scattered clouds at 30000 feet AGL
Weather: no significant weather observed at this time

Forecast for: LOWW (VIENNA/SCHWECHAT, AT)
Text: TAF LOWW 231115Z 2312/2418 13008KT 9999 FEW050CB SCT300 TX27/2315Z TN16/2403Z
Forecast period: 1200 UTC 23 May 2018 to 0200 UTC 24 May 2018
Forecast type: FROM: standard forecast or significant change
Winds: from the SE (130 degrees) at 9 MPH (8 knots; 4.2 m/s)
Visibility: 6 or more miles (10+ km)
Clouds: few clouds at 5000 feet AGL
scattered clouds at 30000 feet AGL
Weather: no significant weather forecast for this period
Forecast for: LOWW (VIENNA/SCHWECHAT, AT)
Text: TAF LOWW 231115Z 2312/2418 13008KT 9999 FEW050CB SCT300 TX27/2315Z TN16/2403Z
Forecast period: 1200 UTC 23 May 2018 to 0200 UTC 24 May 2018
Forecast type: FROM: standard forecast or significant change
Winds: from the SE (130 degrees) at 9 MPH (8 knots; 4.2 m/s)
Visibility: 6 or more miles (10+ km)
Clouds: few clouds at 5000 feet AGL
scattered clouds at 30000 feet AGL
Weather: no significant weather forecast for this period
Forecast for: LOWW (VIENNA/SCHWECHAT, AT)
Text: TAF LOWW 231115Z 2312/2418 13008KT 9999 FEW050CB SCT300 TX27/2315Z TN16/2403Z
Forecast period: 1600 UTC 23 May 2018 to 0200 UTC 24 May 2018
Forecast type: TEMPORARY: The following changes expected for less than half the time period
Winds: variable direction winds at 12 MPH (10 knots; 5.2 m/s)
gusting to 23 MPH (20 knots; 10.4 m/s)
Visibility: 1.86 miles (2.99 km)
Ceiling: 2000 feet AGL
Clouds: broken clouds at 2000 feet AGL
scattered clouds at 3000 feet AGL
Weather: TSRA  (rain associated with thunderstorm(s))
Forecast for: LOWW (VIENNA/SCHWECHAT, AT)
Text: TAF LOWW 231115Z 2312/2418 13008KT 9999 FEW050CB SCT300 TX27/2315Z TN16/2403Z
Forecast period: 1600 UTC 23 May 2018 to 0200 UTC 24 May 2018
Forecast type: TEMPORARY: The following changes expected for less than half the time period
Winds: variable direction winds at 12 MPH (10 knots; 5.2 m/s)
gusting to 23 MPH (20 knots; 10.4 m/s)
Visibility: 1.86 miles (2.99 km)
Ceiling: 2000 feet AGL
Clouds: broken clouds at 2000 feet AGL
scattered clouds at 3000 feet AGL
Weather: TSRA  (rain associated with thunderstorm(s))
Forecast for: LOWW (VIENNA/SCHWECHAT, AT)
Text: TAF LOWW 231115Z 2312/2418 13008KT 9999 FEW050CB SCT300 TX27/2315Z TN16/2403Z
Forecast period: 0200 to 0900 UTC 24 May 2018
Forecast type: FROM: standard forecast or significant change
Winds: from the ENE (60 degrees) at 5 MPH (4 knots; 2.1 m/s)
Visibility: 6 or more miles (10+ km)
Ceiling: 2000 feet AGL
Clouds: scattered clouds at 1200 feet AGL
broken clouds at 2000 feet AGL
Weather: no significant weather forecast for this period
Forecast for: LOWW (VIENNA/SCHWECHAT, AT)
Text: TAF LOWW 231115Z 2312/2418 13008KT 9999 FEW050CB SCT300 TX27/2315Z TN16/2403Z
Forecast period: 0200 to 0900 UTC 24 May 2018
Forecast type: FROM: standard forecast or significant change
Winds: from the ENE (60 degrees) at 5 MPH (4 knots; 2.1 m/s)
Visibility: 6 or more miles (10+ km)
Ceiling: 2000 feet AGL
Clouds: scattered clouds at 1200 feet AGL
broken clouds at 2000 feet AGL
Weather: no significant weather forecast for this period
Forecast for: LOWW (VIENNA/SCHWECHAT, AT)
Text: TAF LOWW 231115Z 2312/2418 13008KT 9999 FEW050CB SCT300 TX27/2315Z TN16/2403Z
Forecast period: 0200 to 0700 UTC 24 May 2018
Forecast type: TEMPORARY: The following changes expected for less than half the time period
Visibility: 2.49 miles (4.01 km)
Ceiling: 1200 feet AGL
Clouds: broken clouds at 1200 feet AGL
few clouds at 5000 feet AGL
Weather: SHRA  (rain showers)
Forecast for: LOWW (VIENNA/SCHWECHAT, AT)
Text: TAF LOWW 231115Z 2312/2418 13008KT 9999 FEW050CB SCT300 TX27/2315Z TN16/2403Z
Forecast period: 0200 to 0700 UTC 24 May 2018
Forecast type: TEMPORARY: The following changes expected for less than half the time period
Visibility: 2.49 miles (4.01 km)
Ceiling: 1200 feet AGL
Clouds: broken clouds at 1200 feet AGL
few clouds at 5000 feet AGL
Weather: SHRA  (rain showers)
Forecast for: LOWW (VIENNA/SCHWECHAT, AT)
Text: TAF LOWW 231115Z 2312/2418 13008KT 9999 FEW050CB SCT300 TX27/2315Z TN16/2403Z
Forecast period: 0900 to 1800 UTC 24 May 2018
Forecast type: BECOMING: Conditions expected to become as follows by 1100 UTC 24 May 2018
Winds: from the ENE (60 degrees) at 5 MPH (4 knots; 2.1 m/s)
Visibility: 6 or more miles (10+ km)
Clouds: scattered clouds at 3000 feet AGL
few clouds at 3000 feet AGL
Weather: no significant weather forecast for this period
Forecast for: LOWW (VIENNA/SCHWECHAT, AT)
Text: TAF LOWW 231115Z 2312/2418 13008KT 9999 FEW050CB SCT300 TX27/2315Z TN16/2403Z
Forecast period: 0900 to 1800 UTC 24 May 2018
Forecast type: BECOMING: Conditions expected to become as follows by 1100 UTC 24 May 2018
Winds: from the ENE (60 degrees) at 5 MPH (4 knots; 2.1 m/s)
Visibility: 6 or more miles (10+ km)
Clouds: scattered clouds at 3000 feet AGL
few clouds at 3000 feet AGL
Weather: no significant weather forecast for this period
Forecast for: LOWW (VIENNA/SCHWECHAT, AT)
Text: TAF LOWW 231115Z 2312/2418 13008KT 9999 FEW050CB SCT300 TX27/2315Z TN16/2403Z
Forecast period: 1300 to 1800 UTC 24 May 2018
Forecast type: TEMPORARY: The following changes expected for less than half the time period
Visibility: 3 miles (5 km)
Ceiling: 2000 feet AGL
Clouds: broken clouds at 2000 feet AGL
scattered clouds at 3000 feet AGL
Weather: TSRA  (rain associated with thunderstorm(s))
Forecast for: LOWW (VIENNA/SCHWECHAT, AT)
Text: TAF LOWW 231115Z 2312/2418 13008KT 9999 FEW050CB SCT300 TX27/2315Z TN16/2403Z
Forecast period: 1300 to 1800 UTC 24 May 2018
Forecast type: TEMPORARY: The following changes expected for less than half the time period
Visibility: 3 miles (5 km)
Ceiling: 2000 feet AGL
Clouds: broken clouds at 2000 feet AGL
scattered clouds at 3000 feet AGL
Weather: TSRA  (rain associated with thunderstorm(s))

 AIRPORT MAP

 RUNWAY INFORMATION
Runway 11 Runway length 11483 ft Runway width 148 ft
Runway elevation 575 ft Runway displaced threshold 0 ft Runway heading 116
Runway 29 Runway length 11483 ft Runway width 148 ft
Runway elevation 600 ft Runway displaced threshold 0 ft Runway heading 296
Runway 16 Runway length 11811 ft Runway width 148 ft
Runway elevation 597 ft Runway displaced threshold 2953 ft Runway heading 164
Runway 34 Runway length 11811 ft Runway width 148 ft
Runway elevation 586 ft Runway displaced threshold 0 ft Runway heading 344

 AIRPORT FREQUENCIES
Type APP Name WIEN RADAR Frequency 128.2 MHZ
Type ATIS Name ATIS Frequency 121.725 MHZ
Type CLD Name WIEN CLNC Frequency 122.125 MHZ
Type DIR Name DIRECTOR Frequency 119.8 MHZ
Type GND Name WIEN GND Frequency 121.6 MHZ
Type INFO Name INFO Frequency 118.525 MHZ
Type RMP Name VIENNA ICE Frequency 131.625 MHZ
Type TWR Name WIEN TWR Frequency 119.4 MHZ

 AIRPORT NEAR NAVIGATION AIDS
Type NDB Name Bruck Frequency 408 KHZ
Type VOR-DME Name Fischamend Frequency 110400 KHZ
Type VOR-DME Name Sollenau Frequency 115500 KHZ
Type NDB Name Steinhof Frequency 293 KHZ
Type VOR-DME Name Wagram Frequency 112200 KHZ
Type NDB Name Schwechat Frequency 303 KHZ